createdAt,value
2022-09-06T00:00:28.829Z,1018.15
2022-09-06T00:01:28.829Z,1018.15
2022-09-06T00:02:28.849Z,1018.13
2022-09-06T00:03:28.851Z,1018.10
2022-09-06T00:04:28.828Z,1018.10
2022-09-06T00:05:28.781Z,1018.11
2022-09-06T00:06:28.788Z,1018.11
2022-09-06T00:07:28.756Z,1018.09
2022-09-06T00:08:28.762Z,1018.11
2022-09-06T00:09:28.736Z,1018.11
2022-09-06T00:10:28.731Z,1018.10
2022-09-06T00:11:28.740Z,1018.09
2022-09-06T00:12:28.712Z,1018.12
2022-09-06T00:13:28.693Z,1018.11
2022-09-06T00:14:28.703Z,1018.10
2022-09-06T00:15:28.721Z,1018.09
2022-09-06T00:16:30.592Z,1018.08
2022-09-06T00:17:28.672Z,1018.07
2022-09-06T00:18:28.732Z,1018.08
2022-09-06T00:19:28.631Z,1018.06
2022-09-06T00:20:28.619Z,1018.09
2022-09-06T00:21:28.649Z,1018.09
2022-09-06T00:22:28.796Z,1018.09
2022-09-06T00:23:28.597Z,1018.08
2022-09-06T00:24:28.577Z,1018.09
2022-09-06T00:25:28.608Z,1018.09
2022-09-06T00:26:28.650Z,1018.09
2022-09-06T00:27:28.587Z,1018.07
2022-09-06T00:28:28.726Z,1018.07
2022-09-06T00:29:28.522Z,1018.05
2022-09-06T00:30:28.518Z,1018.04
2022-09-06T00:31:28.561Z,1018.03
2022-09-06T00:32:28.518Z,1018.03
2022-09-06T00:33:28.493Z,1018.01
2022-09-06T00:34:28.484Z,1018.01
2022-09-06T00:35:28.480Z,1018.01
2022-09-06T00:36:28.477Z,1018.01
2022-09-06T00:37:28.597Z,1018.01
2022-09-06T00:38:28.513Z,1018.01
2022-09-06T00:39:28.493Z,1018.03
2022-09-06T00:40:28.417Z,1018.02
2022-09-06T00:41:28.618Z,1018.03
2022-09-06T00:42:28.655Z,1018.02
2022-09-06T00:43:28.582Z,1017.99
2022-09-06T00:44:28.367Z,1017.98
2022-09-06T00:45:28.683Z,1017.99
2022-09-06T00:46:28.406Z,1018.00
2022-09-06T00:47:28.599Z,1017.99
2022-09-06T00:48:28.502Z,1017.98
2022-09-06T00:49:28.317Z,1018.00
2022-09-06T00:50:28.643Z,1018.00
2022-09-06T00:51:28.610Z,1018.01
2022-09-06T00:52:28.583Z,1018.01
2022-09-06T00:53:28.268Z,1018.03
2022-09-06T00:54:28.481Z,1018.03
2022-09-06T00:55:28.328Z,1018.01
2022-09-06T00:56:28.580Z,1017.99
2022-09-06T00:57:28.584Z,1017.99
2022-09-06T00:58:28.346Z,1017.98
2022-09-06T00:59:28.208Z,1018.01
2022-09-06T01:00:28.229Z,1018.02
2022-09-06T01:01:28.330Z,1018.03
2022-09-06T01:02:28.343Z,1018.06
2022-09-06T01:03:28.284Z,1018.05
2022-09-06T01:04:28.161Z,1018.05
2022-09-06T01:05:28.162Z,1018.05
2022-09-06T01:06:28.160Z,1018.05
2022-09-06T01:07:28.149Z,1018.08
2022-09-06T01:08:28.270Z,1018.04
2022-09-06T01:09:28.109Z,1018.05
2022-09-06T01:10:28.131Z,1018.06
2022-09-06T01:11:28.094Z,1018.02
2022-09-06T01:12:28.117Z,1017.99
2022-09-06T01:13:28.074Z,1018.01
2022-09-06T01:14:28.056Z,1017.96
2022-09-06T01:15:28.093Z,1017.93
2022-09-06T01:16:28.030Z,1017.90
2022-09-06T01:17:28.022Z,1017.91
2022-09-06T01:18:28.198Z,1017.94
2022-09-06T01:19:28.023Z,1017.91
2022-09-06T01:20:28.029Z,1017.95
2022-09-06T01:21:27.998Z,1017.96
2022-09-06T01:22:28.085Z,1017.99
2022-09-06T01:23:28.024Z,1017.93
2022-09-06T01:24:27.957Z,1017.95
2022-09-06T01:25:27.967Z,1017.95
2022-09-06T01:26:28.099Z,1017.94
2022-09-06T01:27:27.911Z,1017.90
2022-09-06T01:28:28.082Z,1017.90
2022-09-06T01:29:27.902Z,1017.91
2022-09-06T01:30:27.898Z,1017.92
2022-09-06T01:31:27.989Z,1017.92
2022-09-06T01:32:27.871Z,1017.92
2022-09-06T01:33:27.911Z,1017.91
2022-09-06T01:34:27.843Z,1017.91
2022-09-06T01:35:27.850Z,1017.91
2022-09-06T01:36:27.991Z,1017.90
2022-09-06T01:37:27.937Z,1017.90
2022-09-06T01:38:28.151Z,1017.92
2022-09-06T01:39:27.914Z,1017.88
2022-09-06T01:40:28.101Z,1017.88
2022-09-06T01:41:27.776Z,1017.89
2022-09-06T01:42:27.876Z,1017.86
2022-09-06T01:43:27.740Z,1017.87
2022-09-06T01:44:27.995Z,1017.88
2022-09-06T01:45:27.754Z,1017.85
2022-09-06T01:46:27.859Z,1017.87
2022-09-06T01:47:27.723Z,1017.89
2022-09-06T01:48:27.834Z,1017.85
2022-09-06T01:49:27.680Z,1017.88
2022-09-06T01:50:27.790Z,1017.89
2022-09-06T01:51:27.822Z,1017.84
2022-09-06T01:52:27.656Z,1017.87
2022-09-06T01:53:27.739Z,1017.83
2022-09-06T01:54:27.645Z,1017.81
2022-09-06T01:55:27.636Z,1017.80
2022-09-06T01:56:27.622Z,1017.77
2022-09-06T01:57:27.605Z,1017.78
2022-09-06T01:58:27.657Z,1017.79
2022-09-06T01:59:27.575Z,1017.78
2022-09-06T02:00:27.642Z,1017.76
2022-09-06T02:01:27.613Z,1017.79
2022-09-06T02:02:27.627Z,1017.73
2022-09-06T02:03:27.539Z,1017.79
2022-09-06T02:04:27.568Z,1017.77
2022-09-06T02:05:27.544Z,1017.75
2022-09-06T02:06:27.521Z,1017.78
2022-09-06T02:07:27.497Z,1017.79
2022-09-06T02:08:27.576Z,1017.78
2022-09-06T02:09:27.480Z,1017.76
2022-09-06T02:10:27.477Z,1017.75
2022-09-06T02:11:27.451Z,1017.78
2022-09-06T02:12:27.450Z,1017.82
2022-09-06T02:13:27.553Z,1017.73
2022-09-06T02:14:27.427Z,1017.76
2022-09-06T02:15:27.442Z,1017.76
2022-09-06T02:16:27.488Z,1017.79
2022-09-06T02:17:27.403Z,1017.75
2022-09-06T02:18:27.502Z,1017.76
2022-09-06T02:19:27.384Z,1017.74
2022-09-06T02:20:27.392Z,1017.72
2022-09-06T02:21:27.344Z,1017.71
2022-09-06T02:22:27.340Z,1017.70
2022-09-06T02:23:27.353Z,1017.71
2022-09-06T02:24:27.325Z,1017.72
2022-09-06T02:25:27.324Z,1017.71
2022-09-06T02:26:27.299Z,1017.75
2022-09-06T02:27:27.285Z,1017.73
2022-09-06T02:28:27.395Z,1017.73
2022-09-06T02:29:27.264Z,1017.74
2022-09-06T02:30:27.352Z,1017.71
2022-09-06T02:31:27.249Z,1017.70
2022-09-06T02:32:27.239Z,1017.73
2022-09-06T02:33:27.220Z,1017.72
2022-09-06T02:34:27.223Z,1017.71
2022-09-06T02:35:27.205Z,1017.68
2022-09-06T02:36:27.211Z,1017.68
2022-09-06T02:37:27.181Z,1017.67
2022-09-06T02:38:27.425Z,1017.65
2022-09-06T02:39:27.210Z,1017.59
2022-09-06T02:40:27.169Z,1017.62
2022-09-06T02:41:27.154Z,1017.62
2022-09-06T02:42:27.138Z,1017.64
2022-09-06T02:43:27.117Z,1017.60
2022-09-06T02:44:27.123Z,1017.65
2022-09-06T02:45:27.094Z,1017.64
2022-09-06T02:46:27.145Z,1017.66
2022-09-06T02:47:27.081Z,1017.67
2022-09-06T02:48:27.182Z,1017.69
2022-09-06T02:49:27.077Z,1017.69
2022-09-06T02:50:27.099Z,1017.62
2022-09-06T02:51:27.056Z,1017.68
2022-09-06T02:52:27.031Z,1017.69
2022-09-06T02:53:27.067Z,1017.67
2022-09-06T02:54:27.011Z,1017.71
2022-09-06T02:55:26.995Z,1017.75
2022-09-06T02:56:27.005Z,1017.76
2022-09-06T02:57:26.970Z,1017.77
2022-09-06T02:58:27.126Z,1017.81
2022-09-06T02:59:26.977Z,1017.81
2022-09-06T03:00:26.946Z,1017.76
2022-09-06T03:01:26.977Z,1017.76
2022-09-06T03:02:26.977Z,1017.72
2022-09-06T03:03:26.920Z,1017.72
2022-09-06T03:04:26.905Z,1017.67
2022-09-06T03:05:26.897Z,1017.68
2022-09-06T03:06:26.900Z,1017.65
2022-09-06T03:07:26.891Z,1017.71
2022-09-06T03:08:27.036Z,1017.68
2022-09-06T03:09:26.882Z,1017.69
2022-09-06T03:10:26.930Z,1017.71
2022-09-06T03:11:26.828Z,1017.70
2022-09-06T03:12:26.820Z,1017.73
2022-09-06T03:13:26.808Z,1017.68
2022-09-06T03:14:26.803Z,1017.65
2022-09-06T03:15:26.809Z,1017.67
2022-09-06T03:16:26.795Z,1017.65
2022-09-06T03:17:26.773Z,1017.65
2022-09-06T03:18:26.901Z,1017.62
2022-09-06T03:19:26.743Z,1017.64
2022-09-06T03:20:26.782Z,1017.62
2022-09-06T03:21:26.719Z,1017.63
2022-09-06T03:22:26.724Z,1017.62
2022-09-06T03:23:26.721Z,1017.59
2022-09-06T03:24:26.697Z,1017.64
2022-09-06T03:25:26.681Z,1017.60
2022-09-06T03:26:26.695Z,1017.58
2022-09-06T03:27:26.720Z,1017.59
2022-09-06T03:28:27.044Z,1017.56
2022-09-06T03:29:26.653Z,1017.56
2022-09-06T03:30:26.709Z,1017.56
2022-09-06T03:31:26.655Z,1017.58
2022-09-06T03:32:26.613Z,1017.52
2022-09-06T03:33:26.597Z,1017.53
2022-09-06T03:34:26.589Z,1017.54
2022-09-06T03:35:26.594Z,1017.54
2022-09-06T03:36:26.642Z,1017.56
2022-09-06T03:37:26.558Z,1017.58
2022-09-06T03:38:26.651Z,1017.50
2022-09-06T03:39:26.558Z,1017.51
2022-09-06T03:40:26.568Z,1017.49
2022-09-06T03:41:26.531Z,1017.48
2022-09-06T03:42:26.636Z,1017.47
2022-09-06T03:43:26.509Z,1017.46
2022-09-06T03:44:26.480Z,1017.46
2022-09-06T03:45:26.490Z,1017.44
2022-09-06T03:46:26.525Z,1017.48
2022-09-06T03:47:26.462Z,1017.45
2022-09-06T03:48:26.807Z,1017.47
2022-09-06T03:49:26.459Z,1017.49
2022-09-06T03:50:26.438Z,1017.47
2022-09-06T03:51:26.434Z,1017.49
2022-09-06T03:52:26.396Z,1017.47
2022-09-06T03:53:26.400Z,1017.45
2022-09-06T03:54:26.381Z,1017.44
2022-09-06T03:55:26.354Z,1017.47
2022-09-06T03:56:26.354Z,1017.45
2022-09-06T03:57:26.348Z,1017.50
2022-09-06T03:58:26.334Z,1017.47
2022-09-06T03:59:26.334Z,1017.48
2022-09-06T04:00:26.501Z,1017.48
2022-09-06T04:01:26.357Z,1017.49
2022-09-06T04:02:26.278Z,1017.50
2022-09-06T04:03:26.242Z,1017.55
2022-09-06T04:04:26.219Z,1017.53
2022-09-06T04:05:26.248Z,1017.55
2022-09-06T04:06:26.197Z,1017.58
2022-09-06T04:07:26.194Z,1017.53
2022-09-06T04:08:26.204Z,1017.54
2022-09-06T04:09:26.172Z,1017.54
2022-09-06T04:10:26.169Z,1017.53
2022-09-06T04:11:26.171Z,1017.55
2022-09-06T04:12:26.147Z,1017.50
2022-09-06T04:13:26.130Z,1017.50
2022-09-06T04:14:26.117Z,1017.48
2022-09-06T04:15:26.241Z,1017.46
2022-09-06T04:16:26.205Z,1017.45
2022-09-06T04:17:26.085Z,1017.44
2022-09-06T04:18:26.197Z,1017.48
2022-09-06T04:19:26.077Z,1017.43
2022-09-06T04:20:26.077Z,1017.45
2022-09-06T04:21:26.049Z,1017.45
2022-09-06T04:22:26.030Z,1017.43
2022-09-06T04:23:26.029Z,1017.43
2022-09-06T04:24:26.024Z,1017.42
2022-09-06T04:25:26.021Z,1017.42
2022-09-06T04:26:26.079Z,1017.40
2022-09-06T04:27:25.996Z,1017.44
2022-09-06T04:28:26.035Z,1017.42
2022-09-06T04:29:25.996Z,1017.42
2022-09-06T04:30:25.944Z,1017.42
2022-09-06T04:31:25.987Z,1017.38
2022-09-06T04:32:26.043Z,1017.38
2022-09-06T04:33:25.931Z,1017.38
2022-09-06T04:34:25.922Z,1017.39
2022-09-06T04:35:25.898Z,1017.37
2022-09-06T04:36:25.886Z,1017.39
2022-09-06T04:37:25.890Z,1017.40
2022-09-06T04:38:25.916Z,1017.38
2022-09-06T04:39:26.124Z,1017.38
2022-09-06T04:40:25.959Z,1017.34
2022-09-06T04:41:25.837Z,1017.35
2022-09-06T04:42:25.835Z,1017.32
2022-09-06T04:43:25.960Z,1017.33
2022-09-06T04:44:25.976Z,1017.33
2022-09-06T04:45:25.853Z,1017.32
2022-09-06T04:46:26.593Z,1017.32
2022-09-06T04:47:25.898Z,1017.31
2022-09-06T04:48:25.788Z,1017.30
2022-09-06T04:49:25.965Z,1017.32
2022-09-06T04:50:25.740Z,1017.29
2022-09-06T04:51:25.744Z,1017.31
2022-09-06T04:52:29.555Z,1017.26
2022-09-06T04:53:25.718Z,1017.24
2022-09-06T04:54:25.744Z,1017.27
2022-09-06T04:55:25.691Z,1017.24
2022-09-06T04:56:25.765Z,1017.27
2022-09-06T04:57:25.670Z,1017.25
2022-09-06T04:58:25.705Z,1017.22
2022-09-06T04:59:25.827Z,1017.25
2022-09-06T05:00:26.583Z,1017.22
2022-09-06T05:01:26.626Z,1017.24
2022-09-06T05:02:25.725Z,1017.22
2022-09-06T05:03:25.666Z,1017.21
2022-09-06T05:04:25.607Z,1017.21
2022-09-06T05:05:25.591Z,1017.23
2022-09-06T05:06:25.572Z,1017.22
2022-09-06T05:07:25.562Z,1017.21
2022-09-06T05:08:25.619Z,1017.23
2022-09-06T05:09:25.606Z,1017.18
2022-09-06T05:10:25.544Z,1017.17
2022-09-06T05:11:25.535Z,1017.21
2022-09-06T05:12:25.506Z,1017.16
2022-09-06T05:13:25.502Z,1017.20
2022-09-06T05:14:25.514Z,1017.18
2022-09-06T05:15:25.504Z,1017.13
2022-09-06T05:16:25.527Z,1017.12
2022-09-06T05:17:25.466Z,1017.13
2022-09-06T05:18:25.515Z,1017.12
2022-09-06T05:19:25.456Z,1017.15
2022-09-06T05:20:25.428Z,1017.13
2022-09-06T05:21:25.418Z,1017.14
2022-09-06T05:22:25.431Z,1017.11
2022-09-06T05:23:25.399Z,1017.13
2022-09-06T05:24:25.454Z,1017.10
2022-09-06T05:25:25.378Z,1017.10
2022-09-06T05:26:25.366Z,1017.09
2022-09-06T05:27:25.373Z,1017.11
2022-09-06T05:28:25.428Z,1017.10
2022-09-06T05:29:28.774Z,1017.12
2022-09-06T05:30:25.326Z,1017.17
2022-09-06T05:31:25.338Z,1017.16
2022-09-06T05:32:25.304Z,1017.12
2022-09-06T05:33:25.297Z,1017.15
2022-09-06T05:34:25.307Z,1017.15
2022-09-06T05:35:25.347Z,1017.15
2022-09-06T05:36:25.273Z,1017.16
2022-09-06T05:37:25.248Z,1017.14
2022-09-06T05:38:28.133Z,1017.17
2022-09-06T05:39:25.287Z,1017.16
2022-09-06T05:40:25.280Z,1017.15
2022-09-06T05:41:25.224Z,1017.14
2022-09-06T05:42:25.201Z,1017.14
2022-09-06T05:43:25.191Z,1017.10
2022-09-06T05:44:25.192Z,1017.12
2022-09-06T05:45:25.276Z,1017.11
2022-09-06T05:46:25.155Z,1017.11
2022-09-06T05:47:25.148Z,1017.08
2022-09-06T05:48:25.176Z,1017.14
2022-09-06T05:49:25.155Z,1017.12
2022-09-06T05:50:25.110Z,1017.13
2022-09-06T05:51:25.122Z,1017.17
2022-09-06T05:52:25.097Z,1017.18
2022-09-06T05:53:25.099Z,1017.19
2022-09-06T05:54:25.088Z,1017.16
2022-09-06T05:55:25.069Z,1017.18
2022-09-06T05:56:25.053Z,1017.19
2022-09-06T05:57:25.068Z,1017.18
2022-09-06T05:58:25.063Z,1017.21
2022-09-06T05:59:25.038Z,1017.17
2022-09-06T06:00:25.005Z,1017.16
2022-09-06T06:01:25.077Z,1017.17
2022-09-06T06:02:25.016Z,1017.21
2022-09-06T06:03:24.981Z,1017.23
2022-09-06T06:04:25.007Z,1017.21
2022-09-06T06:05:24.962Z,1017.20
2022-09-06T06:06:24.947Z,1017.24
2022-09-06T06:07:24.949Z,1017.21
2022-09-06T06:08:24.954Z,1017.24
2022-09-06T06:09:24.944Z,1017.21
2022-09-06T06:10:24.913Z,1017.19
2022-09-06T06:11:24.896Z,1017.19
2022-09-06T06:12:24.887Z,1017.18
2022-09-06T06:13:24.903Z,1017.19
2022-09-06T06:14:24.889Z,1017.15
2022-09-06T06:15:24.858Z,1017.15
2022-09-06T06:16:24.869Z,1017.13
2022-09-06T06:17:24.841Z,1017.10
2022-09-06T06:18:24.831Z,1017.08
2022-09-06T06:19:24.838Z,1017.03
2022-09-06T06:20:24.807Z,1017.05
2022-09-06T06:21:24.796Z,1017.01
2022-09-06T06:22:24.794Z,1017.02
2022-09-06T06:23:24.778Z,1016.99
2022-09-06T06:24:24.787Z,1016.96
2022-09-06T06:25:24.747Z,1016.96
2022-09-06T06:26:24.756Z,1017.00
2022-09-06T06:27:24.735Z,1016.97
2022-09-06T06:28:24.716Z,1017.01
2022-09-06T06:29:24.730Z,1016.99
2022-09-06T06:30:24.723Z,1017.02
2022-09-06T06:31:24.762Z,1016.99
2022-09-06T06:32:24.700Z,1017.00
2022-09-06T06:33:24.666Z,1017.01
2022-09-06T06:34:24.699Z,1017.02
2022-09-06T06:35:24.659Z,1016.99
2022-09-06T06:36:24.632Z,1017.01
2022-09-06T06:37:24.626Z,1016.97
2022-09-06T06:38:24.696Z,1017.01
2022-09-06T06:39:24.631Z,1017.05
2022-09-06T06:40:24.639Z,1017.02
2022-09-06T06:41:24.650Z,1017.01
2022-09-06T06:42:24.570Z,1016.99
2022-09-06T06:43:24.584Z,1016.98
2022-09-06T06:44:24.546Z,1016.97
2022-09-06T06:45:24.576Z,1016.97
2022-09-06T06:46:24.601Z,1016.97
2022-09-06T06:47:24.608Z,1016.95
2022-09-06T06:48:24.577Z,1017.00
2022-09-06T06:49:24.513Z,1017.00
2022-09-06T06:50:24.616Z,1017.04
2022-09-06T06:51:24.644Z,1017.04
2022-09-06T06:52:24.732Z,1016.99
2022-09-06T06:53:24.603Z,1017.03
2022-09-06T06:54:24.456Z,1017.07
2022-09-06T06:55:24.465Z,1017.02
2022-09-06T06:56:24.617Z,1017.01
2022-09-06T06:57:24.418Z,1016.96
2022-09-06T06:58:24.643Z,1016.98
2022-09-06T06:59:24.654Z,1016.99
2022-09-06T07:00:28.127Z,1016.99
2022-09-06T07:01:25.362Z,1017.03
2022-09-06T07:02:24.443Z,1017.03
2022-09-06T07:03:24.382Z,1016.96
2022-09-06T07:04:24.739Z,1016.98
2022-09-06T07:07:33.555Z,1016.91
2022-09-06T07:08:24.599Z,1016.96
2022-09-06T07:09:24.425Z,1016.89
2022-09-06T07:10:39.577Z,1016.87
2022-09-06T07:11:24.988Z,1016.89
2022-09-06T07:12:24.261Z,1016.85
2022-09-06T07:13:24.253Z,1016.88
2022-09-06T07:14:24.589Z,1016.84
2022-09-06T07:15:24.301Z,1016.83
2022-09-06T07:16:24.293Z,1016.83
2022-09-06T07:17:24.205Z,1016.81
2022-09-06T07:18:24.205Z,1016.78
2022-09-06T07:20:24.352Z,1016.78
2022-09-06T07:21:39.639Z,1016.76
2022-09-06T07:22:24.157Z,1016.79
2022-09-06T07:24:24.158Z,1016.82
2022-09-06T07:25:24.151Z,1016.83
2022-09-06T07:26:24.127Z,1016.84
2022-09-06T07:28:24.233Z,1016.85
2022-09-06T07:29:24.095Z,1016.84
2022-09-06T07:30:24.157Z,1016.88
2022-09-06T07:32:24.091Z,1016.87
2022-09-06T07:33:24.081Z,1016.91
2022-09-06T07:34:24.048Z,1016.92
2022-09-06T07:35:24.044Z,1016.94
2022-09-06T07:36:24.005Z,1016.96
2022-09-06T07:37:24.013Z,1016.94
2022-09-06T07:38:23.987Z,1016.94
2022-09-06T07:39:24.117Z,1016.95
2022-09-06T07:40:24.032Z,1016.93
2022-09-06T07:41:23.962Z,1016.93
2022-09-06T07:42:24.038Z,1016.95
2022-09-06T07:43:24.006Z,1016.95
2022-09-06T07:44:23.965Z,1016.95
2022-09-06T07:45:23.940Z,1016.97
2022-09-06T07:46:23.981Z,1016.97
2022-09-06T07:48:23.962Z,1017.00
2022-09-06T07:49:24.086Z,1016.97
2022-09-06T07:51:23.970Z,1016.99
2022-09-06T07:53:30.593Z,1016.92
2022-09-06T07:54:30.455Z,1016.92
2022-09-06T07:55:23.825Z,1016.90
2022-09-06T07:56:23.803Z,1016.89
2022-09-06T07:57:23.868Z,1016.87
2022-09-06T07:58:23.789Z,1016.85
2022-09-06T07:59:23.791Z,1016.87
2022-09-06T08:00:23.997Z,1016.85
2022-09-06T08:01:23.776Z,1016.85
2022-09-06T08:02:24.079Z,1016.83
2022-09-06T08:03:23.769Z,1016.81
2022-09-06T08:04:23.744Z,1016.83
2022-09-06T08:06:23.731Z,1016.81
2022-09-06T08:07:39.209Z,1016.78
2022-09-06T08:09:23.679Z,1016.78
2022-09-06T08:10:23.700Z,1016.81
2022-09-06T08:11:23.650Z,1016.79
2022-09-06T08:12:23.797Z,1016.79
2022-09-06T08:13:23.699Z,1016.81
2022-09-06T08:14:23.784Z,1016.81
2022-09-06T08:15:23.618Z,1016.77
2022-09-06T08:16:23.657Z,1016.79
2022-09-06T08:17:23.607Z,1016.81
2022-09-06T08:18:23.604Z,1016.83
2022-09-06T08:19:23.580Z,1016.85
2022-09-06T08:20:23.569Z,1016.83
2022-09-06T08:21:23.569Z,1016.86
2022-09-06T08:22:23.568Z,1016.84
2022-09-06T08:23:23.668Z,1016.82
2022-09-06T08:24:23.527Z,1016.82
2022-09-06T08:25:23.561Z,1016.85
2022-09-06T08:26:23.506Z,1016.83
2022-09-06T08:27:23.490Z,1016.90
2022-09-06T08:28:26.792Z,1016.87
2022-09-06T08:29:23.479Z,1016.91
2022-09-06T08:30:23.466Z,1016.93
2022-09-06T08:31:23.484Z,1016.92
2022-09-06T08:32:23.445Z,1016.93
2022-09-06T08:33:23.496Z,1016.92
2022-09-06T08:34:23.417Z,1016.95
2022-09-06T08:35:23.412Z,1016.94
2022-09-06T08:36:23.394Z,1016.95
2022-09-06T08:37:25.198Z,1016.98
2022-09-06T08:38:23.399Z,1016.90
2022-09-06T08:39:23.385Z,1016.92
2022-09-06T08:40:23.357Z,1016.94
2022-09-06T08:41:23.372Z,1016.88
2022-09-06T08:42:23.337Z,1016.89
2022-09-06T08:43:23.348Z,1016.87
2022-09-06T08:45:23.312Z,1016.84
2022-09-06T08:46:23.332Z,1016.86
2022-09-06T08:47:23.283Z,1016.87
2022-09-06T08:48:23.320Z,1016.85
2022-09-06T08:49:23.276Z,1016.84
2022-09-06T08:50:23.258Z,1016.85
2022-09-06T08:51:23.265Z,1016.81
2022-09-06T08:52:23.231Z,1016.86
2022-09-06T08:53:23.228Z,1016.84
2022-09-06T08:54:23.232Z,1016.85
2022-09-06T08:55:23.213Z,1016.88
2022-09-06T08:56:23.193Z,1016.86
2022-09-06T08:57:23.175Z,1016.83
2022-09-06T08:58:23.171Z,1016.88
2022-09-06T08:59:23.175Z,1016.86
2022-09-06T09:00:23.163Z,1016.86
2022-09-06T09:01:23.143Z,1016.78
2022-09-06T09:02:23.200Z,1016.81
2022-09-06T09:03:23.117Z,1016.77
2022-09-06T09:04:23.145Z,1016.76
2022-09-06T09:05:23.110Z,1016.74
2022-09-06T09:06:23.114Z,1016.75
2022-09-06T09:07:23.082Z,1016.72
2022-09-06T09:08:23.108Z,1016.71
2022-09-06T09:09:23.084Z,1016.73
2022-09-06T09:10:23.045Z,1016.73
2022-09-06T09:11:23.100Z,1016.70
2022-09-06T09:12:23.030Z,1016.69
2022-09-06T09:13:23.016Z,1016.67
2022-09-06T09:14:23.019Z,1016.66
2022-09-06T09:15:22.999Z,1016.65
2022-09-06T09:16:23.036Z,1016.65
2022-09-06T09:17:22.975Z,1016.62
2022-09-06T09:18:22.978Z,1016.58
2022-09-06T09:19:22.971Z,1016.59
2022-09-06T09:20:22.958Z,1016.56
2022-09-06T09:21:25.761Z,1016.58
2022-09-06T09:22:22.939Z,1016.56
2022-09-06T09:23:22.986Z,1016.55
2022-09-06T09:24:22.920Z,1016.54
2022-09-06T09:25:22.888Z,1016.56
2022-09-06T09:26:22.894Z,1016.58
2022-09-06T09:27:22.870Z,1016.57
2022-09-06T09:28:22.922Z,1016.58
2022-09-06T09:29:27.430Z,1016.58
2022-09-06T09:31:22.868Z,1016.54
2022-09-06T09:32:22.823Z,1016.49
2022-09-06T09:33:22.895Z,1016.49
2022-09-06T09:34:22.804Z,1016.43
2022-09-06T09:35:22.790Z,1016.43
2022-09-06T09:36:22.790Z,1016.43
2022-09-06T09:38:22.837Z,1016.39
2022-09-06T09:39:22.747Z,1016.37
2022-09-06T09:40:22.746Z,1016.38
2022-09-06T09:41:22.726Z,1016.36
2022-09-06T09:42:22.729Z,1016.34
2022-09-06T09:43:22.724Z,1016.35
2022-09-06T09:44:22.723Z,1016.33
2022-09-06T09:45:22.684Z,1016.32
2022-09-06T09:46:22.710Z,1016.31
2022-09-06T09:47:22.670Z,1016.31
2022-09-06T09:48:22.703Z,1016.27
2022-09-06T09:49:22.655Z,1016.22
2022-09-06T09:50:22.637Z,1016.26
2022-09-06T09:51:26.580Z,1016.21
2022-09-06T09:52:22.615Z,1016.20
2022-09-06T09:53:22.611Z,1016.15
2022-09-06T09:54:22.594Z,1016.15
2022-09-06T09:55:22.596Z,1016.11
2022-09-06T09:56:22.576Z,1016.07
2022-09-06T09:57:22.667Z,1016.04
2022-09-06T09:58:22.608Z,1016.05
2022-09-06T09:59:22.588Z,1016.05
2022-09-06T10:00:22.634Z,1016.03
2022-09-06T10:01:22.542Z,1016.04
2022-09-06T10:02:22.513Z,1016.03
2022-09-06T10:03:22.706Z,1016.06
2022-09-06T10:05:22.480Z,1016.05
2022-09-06T10:07:22.476Z,1016.09
2022-09-06T10:08:22.534Z,1016.08
2022-09-06T10:09:22.440Z,1016.05
2022-09-06T10:10:22.571Z,1016.09
2022-09-06T10:11:22.425Z,1016.03
2022-09-06T10:12:22.638Z,1016.04
2022-09-06T10:13:22.431Z,1016.04
2022-09-06T10:14:22.398Z,1016.02
2022-09-06T10:15:22.375Z,1015.98
2022-09-06T10:16:22.417Z,1016.02
2022-09-06T10:17:22.365Z,1016.00
2022-09-06T10:18:22.398Z,1016.02
2022-09-06T10:19:22.335Z,1016.02
2022-09-06T10:20:22.325Z,1016.05
2022-09-06T10:21:22.317Z,1016.01
2022-09-06T10:22:22.577Z,1016.02
2022-09-06T10:24:28.169Z,1015.98
2022-09-06T10:25:22.273Z,1015.99
2022-09-06T10:26:22.287Z,1015.95
2022-09-06T10:27:22.939Z,1015.94
2022-09-06T10:28:22.266Z,1015.92
2022-09-06T10:29:22.237Z,1015.94
2022-09-06T10:30:22.238Z,1015.95
2022-09-06T10:31:22.283Z,1015.93
2022-09-06T10:32:22.218Z,1015.94
2022-09-06T10:33:22.187Z,1015.94
2022-09-06T10:34:22.181Z,1015.90
2022-09-06T10:35:22.174Z,1015.89
2022-09-06T10:36:22.172Z,1015.91
2022-09-06T10:37:22.185Z,1015.89
2022-09-06T10:38:22.143Z,1015.85
2022-09-06T10:39:22.149Z,1015.89
2022-09-06T10:40:22.125Z,1015.84
2022-09-06T10:41:22.110Z,1015.84
2022-09-06T10:42:22.209Z,1015.84
2022-09-06T10:43:22.093Z,1015.85
2022-09-06T10:44:22.078Z,1015.84
2022-09-06T10:45:22.082Z,1015.81
2022-09-06T10:46:22.149Z,1015.81
2022-09-06T10:47:22.085Z,1015.82
2022-09-06T10:48:22.099Z,1015.81
2022-09-06T10:49:22.059Z,1015.80
2022-09-06T10:50:22.019Z,1015.80
2022-09-06T10:51:22.006Z,1015.78
2022-09-06T10:52:22.022Z,1015.75
2022-09-06T10:53:21.983Z,1015.75
2022-09-06T10:54:21.990Z,1015.72
2022-09-06T10:55:22.088Z,1015.78
2022-09-06T10:56:21.961Z,1015.73
2022-09-06T10:58:22.197Z,1015.69
2022-09-06T10:59:38.330Z,1015.67
2022-09-06T11:00:21.936Z,1015.69
2022-09-06T11:01:22.736Z,1015.66
2022-09-06T11:02:22.147Z,1015.64
2022-09-06T11:04:21.882Z,1015.61
2022-09-06T11:06:24.357Z,1015.64
2022-09-06T11:07:21.964Z,1015.67
2022-09-06T11:09:21.821Z,1015.66
2022-09-06T11:10:21.967Z,1015.64
2022-09-06T11:11:21.853Z,1015.64
2022-09-06T11:12:21.811Z,1015.64
2022-09-06T11:13:21.779Z,1015.63
2022-09-06T11:14:21.775Z,1015.61
2022-09-06T11:15:21.790Z,1015.61
2022-09-06T11:16:22.744Z,1015.61
2022-09-06T11:17:21.753Z,1015.59
2022-09-06T11:18:21.779Z,1015.59
2022-09-06T11:19:21.754Z,1015.59
2022-09-06T11:20:21.711Z,1015.61
2022-09-06T11:21:21.701Z,1015.61
2022-09-06T11:22:21.729Z,1015.61
2022-09-06T11:23:21.677Z,1015.62
2022-09-06T11:24:21.743Z,1015.61
2022-09-06T11:25:21.724Z,1015.62
2022-09-06T11:26:21.726Z,1015.56
2022-09-06T11:27:21.649Z,1015.57
2022-09-06T11:28:21.743Z,1015.59
2022-09-06T11:29:22.634Z,1015.56
2022-09-06T11:30:21.617Z,1015.54
2022-09-06T11:32:21.708Z,1015.52
2022-09-06T11:33:21.574Z,1015.50
2022-09-06T11:34:21.569Z,1015.51
2022-09-06T11:35:21.573Z,1015.50
2022-09-06T11:36:21.546Z,1015.48
2022-09-06T11:37:21.599Z,1015.52
2022-09-06T11:38:21.531Z,1015.49
2022-09-06T11:40:28.614Z,1015.46
2022-09-06T11:41:21.510Z,1015.44
2022-09-06T11:42:21.499Z,1015.46
2022-09-06T11:43:21.491Z,1015.44
2022-09-06T11:44:21.466Z,1015.45
2022-09-06T11:45:21.553Z,1015.46
2022-09-06T11:46:21.473Z,1015.46
2022-09-06T11:47:21.460Z,1015.46
2022-09-06T11:48:21.530Z,1015.43
2022-09-06T11:49:21.407Z,1015.45
2022-09-06T11:50:21.437Z,1015.43
2022-09-06T11:51:21.392Z,1015.40
2022-09-06T11:52:21.410Z,1015.37
2022-09-06T11:53:21.401Z,1015.42
2022-09-06T11:54:21.389Z,1015.38
2022-09-06T11:55:22.940Z,1015.37
2022-09-06T11:56:21.353Z,1015.33
2022-09-06T11:57:21.399Z,1015.35
2022-09-06T11:58:21.340Z,1015.34
2022-09-06T11:59:21.316Z,1015.34
2022-09-06T12:00:21.334Z,1015.32
2022-09-06T12:01:21.287Z,1015.31
2022-09-06T12:02:21.431Z,1015.32
2022-09-06T12:04:21.267Z,1015.32
2022-09-06T12:05:21.261Z,1015.31
2022-09-06T12:06:21.241Z,1015.32
2022-09-06T12:07:21.261Z,1015.32
2022-09-06T12:08:21.221Z,1015.31
2022-09-06T12:09:21.240Z,1015.29
2022-09-06T12:10:21.226Z,1015.29
2022-09-06T12:11:21.230Z,1015.30
2022-09-06T12:12:21.357Z,1015.27
2022-09-06T12:13:21.173Z,1015.28
2022-09-06T12:14:21.158Z,1015.29
2022-09-06T12:15:21.158Z,1015.26
2022-09-06T12:16:21.196Z,1015.23
2022-09-06T12:17:21.150Z,1015.25
2022-09-06T12:18:21.148Z,1015.26
2022-09-06T12:19:21.120Z,1015.20
2022-09-06T12:20:21.128Z,1015.24
2022-09-06T12:21:21.091Z,1015.20
2022-09-06T12:22:21.103Z,1015.24
2022-09-06T12:23:21.075Z,1015.20
2022-09-06T12:24:21.053Z,1015.22
2022-09-06T12:25:21.079Z,1015.22
2022-09-06T12:26:21.035Z,1015.21
2022-09-06T12:27:21.057Z,1015.18
2022-09-06T12:28:21.052Z,1015.21
2022-09-06T12:31:46.954Z,1015.18